Time;durP1;ratioP1;P1;durP2;ratioP2;P2;SDS_P1;SDS_P2;PMS_P1;PMS_P2;Temp;Humidity;BMP_temperature;BMP_pressure;BME280_temperature;BME280_humidity;BME280_pressure;Samples;Min_cycle;Max_cycle;Signal;HPM_P1;HPM_P2
2024/01/27 00:21:25;;;;;;;3.67;1.00;;;;;;;;;;5086636;27;1592556;-65
2024/01/27 00:23:54;;;;;;;5.95;1.08;;;;;;;;;;5095706;27;20049;-63
2024/01/27 00:26:22;;;;;;;2.88;1.10;;;;;;;;;;5036023;28;20052;-64
2024/01/27 00:28:49;;;;;;;6.63;1.48;;;;;;;;;;5042185;28;20140;-64
2024/01/27 00:31:15;;;;;;;5.72;1.58;;;;;;;;;;5052494;28;20041;-65
2024/01/27 00:33:42;;;;;;;4.50;1.40;;;;;;;;;;5044023;28;20045;-64
2024/01/27 00:36:09;;;;;;;3.60;1.20;;;;;;;;;;5024975;28;20105;-64
2024/01/27 00:38:39;;;;;;;8.52;2.38;;;;;;;;;;5047567;28;20048;-64
2024/01/27 00:41:06;;;;;;;6.25;1.67;;;;;;;;;;5053366;28;20156;-64
2024/01/27 00:43:33;;;;;;;3.67;1.27;;;;;;;;;;5050508;28;20143;-65
2024/01/27 00:46:00;;;;;;;11.80;3.28;;;;;;;;;;5031705;28;20061;-65
2024/01/27 00:48:29;;;;;;;12.27;3.75;;;;;;;;;;5052261;28;20076;-65
2024/01/27 00:50:56;;;;;;;17.42;6.65;;;;;;;;;;5049269;28;20072;-65
2024/01/27 00:53:22;;;;;;;29.35;7.38;;;;;;;;;;5060570;28;20069;-65
2024/01/27 00:55:51;;;;;;;12.70;2.75;;;;;;;;;;5048027;28;20061;-64
2024/01/27 00:58:17;;;;;;;6.28;1.83;;;;;;;;;;5088945;28;20090;-64
2024/01/27 01:00:44;;;;;;;8.90;2.05;;;;;;;;;;5066338;28;20087;-64
2024/01/27 01:03:14;;;;;;;8.77;1.90;;;;;;;;;;5056880;28;20048;-64
2024/01/27 01:05:40;;;;;;;7.85;1.63;;;;;;;;;;5051071;28;20059;-63
2024/01/27 01:08:07;;;;;;;5.95;1.35;;;;;;;;;;5033885;28;20056;-64
2024/01/27 01:10:35;;;;;;;4.72;1.70;;;;;;;;;;5032337;28;20056;-64
2024/01/27 01:13:05;;;;;;;9.35;1.85;;;;;;;;;;5047239;28;20052;-63
2024/01/27 01:15:32;;;;;;;11.75;2.13;;;;;;;;;;5054668;28;20107;-62
2024/01/27 01:17:59;;;;;;;5.57;1.70;;;;;;;;;;5049771;28;20053;-63
2024/01/27 01:20:27;;;;;;;7.18;1.95;;;;;;;;;;5063686;28;20068;-63
2024/01/27 01:22:54;;;;;;;9.90;1.77;;;;;;;;;;5052828;28;20041;-64
2024/01/27 01:25:20;;;;;;;8.40;2.20;;;;;;;;;;5051865;28;20098;-66
2024/01/27 01:27:49;;;;;;;8.73;2.15;;;;;;;;;;5054578;28;20131;-64
2024/01/27 01:30:18;;;;;;;4.72;1.67;;;;;;;;;;5058771;28;20053;-64
2024/01/27 01:32:45;;;;;;;6.22;1.83;;;;;;;;;;5054733;28;20071;-63
2024/01/27 01:35:11;;;;;;;6.38;1.60;;;;;;;;;;5054911;28;20068;-64
2024/01/27 01:37:39;;;;;;;3.70;1.55;;;;;;;;;;5042693;28;20165;-64
2024/01/27 01:40:07;;;;;;;7.43;1.90;;;;;;;;;;5047923;28;20056;-63
2024/01/27 01:42:36;;;;;;;8.40;1.95;;;;;;;;;;5059932;28;20056;-63
2024/01/27 01:45:03;;;;;;;11.65;2.33;;;;;;;;;;5062168;28;20051;-64
2024/01/27 01:47:33;;;;;;;14.07;1.90;;;;;;;;;;5040200;28;20072;-63
2024/01/27 01:49:59;;;;;;;5.25;1.83;;;;;;;;;;5067384;28;20048;-63
2024/01/27 01:52:28;;;;;;;7.32;1.73;;;;;;;;;;5042946;28;20154;-64
2024/01/27 01:54:55;;;;;;;9.80;1.90;;;;;;;;;;5044499;28;20067;-64
2024/01/27 01:57:21;;;;;;;5.93;1.50;;;;;;;;;;5032667;28;20056;-63
2024/01/27 01:59:48;;;;;;;7.72;1.95;;;;;;;;;;5055375;28;20114;-64
2024/01/27 02:02:16;;;;;;;10.52;1.95;;;;;;;;;;5049988;28;20499;-63
2024/01/27 02:04:45;;;;;;;8.63;1.90;;;;;;;;;;5050786;28;20051;-64
2024/01/27 02:07:12;;;;;;;8.93;1.60;;;;;;;;;;5019295;28;20060;-63
2024/01/27 02:09:39;;;;;;;9.07;1.80;;;;;;;;;;5029291;28;20057;-63
2024/01/27 02:12:07;;;;;;;6.40;1.63;;;;;;;;;;5031474;28;20142;-64
2024/01/27 02:14:34;;;;;;;12.00;2.30;;;;;;;;;;5016170;28;20049;-64
2024/01/27 02:17:01;;;;;;;9.18;1.80;;;;;;;;;;5020380;28;20052;-63
2024/01/27 02:19:29;;;;;;;6.95;1.77;;;;;;;;;;5030362;28;20049;-63
2024/01/27 02:21:57;;;;;;;6.32;1.95;;;;;;;;;;5022585;28;20049;-63
2024/01/27 02:24:27;;;;;;;11.10;2.20;;;;;;;;;;5017345;28;20147;-63
2024/01/27 02:26:54;;;;;;;4.95;1.67;;;;;;;;;;5043288;28;20056;-64
2024/01/27 02:29:21;;;;;;;6.10;1.70;;;;;;;;;;5042743;28;20051;-62
2024/01/27 02:31:47;;;;;;;9.82;2.50;;;;;;;;;;5047014;28;20075;-63
2024/01/27 02:34:14;;;;;;;8.68;1.70;;;;;;;;;;5037067;28;20155;-65
2024/01/27 02:36:43;;;;;;;9.95;1.50;;;;;;;;;;5041044;28;20053;-63
2024/01/27 02:39:10;;;;;;;6.65;2.00;;;;;;;;;;5033189;28;20045;-63
2024/01/27 02:41:39;;;;;;;7.40;1.88;;;;;;;;;;5034391;28;20057;-64
2024/01/27 02:44:06;;;;;;;8.50;1.65;;;;;;;;;;5038324;28;20055;-63
2024/01/27 02:46:32;;;;;;;11.68;1.85;;;;;;;;;;5032282;28;20131;-63
2024/01/27 02:49:00;;;;;;;7.22;1.83;;;;;;;;;;5058371;28;20798;-63
2024/01/27 02:51:26;;;;;;;7.93;1.80;;;;;;;;;;5011561;28;20157;-63
2024/01/27 02:53:53;;;;;;;6.35;1.65;;;;;;;;;;5043930;28;20052;-63
2024/01/27 02:56:20;;;;;;;10.27;2.13;;;;;;;;;;5022047;28;20151;-64
2024/01/27 02:58:48;;;;;;;8.73;2.08;;;;;;;;;;5038955;28;20158;-63
2024/01/27 03:01:15;;;;;;;7.57;2.10;;;;;;;;;;5038217;28;20064;-63
2024/01/27 03:03:43;;;;;;;5.60;1.65;;;;;;;;;;5029198;28;20086;-63
2024/01/27 03:06:12;;;;;;;8.35;1.55;;;;;;;;;;5044494;28;20168;-63
2024/01/27 03:08:41;;;;;;;5.53;1.55;;;;;;;;;;5050141;28;20049;-63
2024/01/27 03:11:07;;;;;;;8.57;1.55;;;;;;;;;;5034386;28;20069;-63
2024/01/27 03:13:34;;;;;;;4.60;1.70;;;;;;;;;;5026767;28;20068;-64
2024/01/27 03:16:02;;;;;;;13.27;1.67;;;;;;;;;;5013233;28;20049;-64
2024/01/27 03:18:29;;;;;;;7.53;1.77;;;;;;;;;;5018789;28;20045;-63
2024/01/27 03:20:56;;;;;;;7.85;1.75;;;;;;;;;;5037089;28;20056;-63
2024/01/27 03:23:22;;;;;;;7.35;1.73;;;;;;;;;;5025315;28;20110;-63
2024/01/27 03:25:50;;;;;;;7.20;1.70;;;;;;;;;;5032837;28;20048;-63
2024/01/27 03:28:17;;;;;;;6.50;1.83;;;;;;;;;;5036201;28;20069;-63
2024/01/27 03:30:44;;;;;;;6.03;1.60;;;;;;;;;;5035333;28;20149;-63
2024/01/27 03:33:12;;;;;;;5.57;1.70;;;;;;;;;;5037573;28;20051;-63
2024/01/27 03:35:42;;;;;;;6.18;1.48;;;;;;;;;;5035877;28;20058;-63
2024/01/27 03:38:09;;;;;;;9.70;2.05;;;;;;;;;;5047306;28;20053;-63
2024/01/27 03:40:36;;;;;;;8.13;1.60;;;;;;;;;;5055254;28;20049;-63
2024/01/27 03:43:03;;;;;;;5.53;1.75;;;;;;;;;;5061560;28;20048;-64
2024/01/27 03:45:29;;;;;;;10.35;1.88;;;;;;;;;;5028877;28;20140;-63
2024/01/27 03:47:58;;;;;;;9.80;1.75;;;;;;;;;;5038317;28;20054;-63
2024/01/27 03:50:26;;;;;;;6.18;1.70;;;;;;;;;;5045233;28;20063;-63
2024/01/27 03:52:53;;;;;;;7.00;1.75;;;;;;;;;;5059874;28;20072;-63
2024/01/27 03:55:19;;;;;;;4.70;1.75;;;;;;;;;;5015495;28;20139;-63
2024/01/27 03:57:47;;;;;;;9.15;1.92;;;;;;;;;;5032663;28;20056;-63
2024/01/27 04:00:14;;;;;;;6.22;1.88;;;;;;;;;;5018789;28;20049;-63
2024/01/27 04:02:41;;;;;;;6.65;2.30;;;;;;;;;;5018594;28;20056;-63
2024/01/27 04:05:10;;;;;;;15.00;2.90;;;;;;;;;;5032189;28;20056;-65
2024/01/27 04:07:43;;;;;;;7.05;2.15;;;;;;;;;;5037585;28;20067;-63
2024/01/27 04:10:12;;;;;;;7.82;1.95;;;;;;;;;;5037930;28;20052;-63
2024/01/27 04:12:39;;;;;;;7.43;1.80;;;;;;;;;;5044697;28;20153;-63
2024/01/27 04:15:07;;;;;;;3.92;1.73;;;;;;;;;;5061171;28;20084;-63
2024/01/27 04:17:33;;;;;;;8.80;1.70;;;;;;;;;;5043645;28;20060;-63
2024/01/27 04:20:00;;;;;;;8.27;2.03;;;;;;;;;;5034540;28;20049;-64
2024/01/27 04:22:28;;;;;;;11.35;2.28;;;;;;;;;;5048568;28;20145;-63
2024/01/27 04:24:56;;;;;;;7.53;2.40;;;;;;;;;;5036437;28;20155;-63
2024/01/27 04:27:23;;;;;;;7.18;2.22;;;;;;;;;;5048104;28;20075;-64
2024/01/27 04:29:50;;;;;;;11.57;2.35;;;;;;;;;;5042751;28;20063;-63
2024/01/27 04:32:17;;;;;;;5.95;2.55;;;;;;;;;;5048680;28;20048;-63
2024/01/27 04:34:43;;;;;;;7.50;2.25;;;;;;;;;;5039223;28;20048;-63
2024/01/27 04:37:10;;;;;;;9.45;2.75;;;;;;;;;;5051004;28;20068;-63
2024/01/27 04:39:37;;;;;;;6.30;2.72;;;;;;;;;;5040089;28;20065;-63
2024/01/27 04:42:06;;;;;;;9.35;3.15;;;;;;;;;;5032464;28;20368;-64
2024/01/27 04:44:32;;;;;;;14.95;3.28;;;;;;;;;;5027018;28;20087;-63
2024/01/27 04:46:59;;;;;;;9.52;2.90;;;;;;;;;;5037194;28;20044;-64
2024/01/27 04:49:26;;;;;;;13.57;3.00;;;;;;;;;;5059234;28;20052;-63
2024/01/27 04:51:56;;;;;;;8.88;3.03;;;;;;;;;;5031337;28;20147;-64
2024/01/27 04:54:22;;;;;;;8.98;2.80;;;;;;;;;;5038430;28;20107;-63
2024/01/27 04:56:49;;;;;;;8.65;2.80;;;;;;;;;;5047793;28;20059;-63
2024/01/27 04:59:17;;;;;;;11.98;2.95;;;;;;;;;;5070195;28;20129;-63
2024/01/27 05:01:45;;;;;;;5.85;2.53;;;;;;;;;;5045920;28;20068;-64
2024/01/27 05:04:12;;;;;;;9.10;2.60;;;;;;;;;;5043617;28;20147;-63
2024/01/27 05:06:41;;;;;;;6.55;2.60;;;;;;;;;;5019465;28;20061;-64
2024/01/27 05:09:08;;;;;;;9.70;3.17;;;;;;;;;;5023787;28;20079;-63
2024/01/27 05:11:35;;;;;;;6.45;2.38;;;;;;;;;;5023315;28;20055;-63
2024/01/27 05:14:02;;;;;;;9.90;2.90;;;;;;;;;;5015671;28;20278;-64
2024/01/27 05:16:31;;;;;;;13.55;3.88;;;;;;;;;;5039752;28;20053;-64
2024/01/27 05:18:58;;;;;;;9.40;3.00;;;;;;;;;;5021771;28;20114;-63
2024/01/27 05:21:25;;;;;;;12.38;3.05;;;;;;;;;;5036838;28;20185;-63
2024/01/27 05:23:53;;;;;;;6.90;2.33;;;;;;;;;;5031722;28;20143;-63
2024/01/27 05:26:20;;;;;;;9.13;2.80;;;;;;;;;;5038018;28;20081;-64
2024/01/27 05:28:46;;;;;;;8.55;3.47;;;;;;;;;;5021873;28;20052;-63
2024/01/27 05:31:13;;;;;;;8.90;2.60;;;;;;;;;;5037998;28;20129;-63
2024/01/27 05:33:41;;;;;;;12.05;3.22;;;;;;;;;;5023760;28;20052;-63
2024/01/27 05:36:10;;;;;;;8.68;2.50;;;;;;;;;;5047645;28;20078;-63
2024/01/27 05:38:38;;;;;;;6.95;2.53;;;;;;;;;;5046981;28;20059;-63
2024/01/27 05:41:05;;;;;;;6.13;2.58;;;;;;;;;;5043389;28;20044;-63
2024/01/27 05:43:32;;;;;;;9.75;2.67;;;;;;;;;;5058209;28;20119;-64
2024/01/27 05:45:59;;;;;;;7.38;2.83;;;;;;;;;;5034051;28;20049;-64
2024/01/27 05:48:26;;;;;;;6.82;2.83;;;;;;;;;;5052262;28;20049;-63
2024/01/27 05:50:58;;;;;;;9.05;3.38;;;;;;;;;;5046194;28;20061;-63
2024/01/27 05:53:25;;;;;;;9.45;2.60;;;;;;;;;;5030815;28;20071;-63
2024/01/27 05:55:54;;;;;;;11.05;3.17;;;;;;;;;;5026926;28;20080;-63
2024/01/27 05:58:21;;;;;;;9.40;3.15;;;;;;;;;;5040651;28;20057;-63
2024/01/27 06:00:48;;;;;;;19.17;3.03;;;;;;;;;;5041535;28;20055;-64
2024/01/27 06:03:16;;;;;;;9.05;3.22;;;;;;;;;;5043228;28;20076;-63
2024/01/27 06:05:49;;;;;;;11.07;2.90;;;;;;;;;;5025067;28;20057;-63
2024/01/27 06:08:20;;;;;;;12.55;3.25;;;;;;;;;;5030590;28;20072;-63
2024/01/27 06:10:47;;;;;;;8.93;3.03;;;;;;;;;;5030051;28;20209;-63
2024/01/27 06:13:13;;;;;;;8.77;2.65;;;;;;;;;;5034279;28;20157;-64
2024/01/27 06:15:43;;;;;;;11.43;2.88;;;;;;;;;;5022687;28;20163;-64
2024/01/27 06:18:10;;;;;;;8.95;2.90;;;;;;;;;;5022234;28;20049;-64
2024/01/27 06:20:37;;;;;;;8.25;3.05;;;;;;;;;;5027849;28;20149;-64
2024/01/27 06:23:04;;;;;;;15.38;3.58;;;;;;;;;;5042812;28;20155;-63
2024/01/27 06:25:33;;;;;;;10.75;3.30;;;;;;;;;;5027774;28;20060;-63
2024/01/27 06:28:00;;;;;;;10.77;3.15;;;;;;;;;;5029030;28;20053;-63
2024/01/27 06:30:27;;;;;;;9.80;2.90;;;;;;;;;;5042275;28;20111;-63
2024/01/27 06:32:53;;;;;;;7.70;2.97;;;;;;;;;;5036640;28;20072;-63
2024/01/27 06:35:20;;;;;;;6.53;2.85;;;;;;;;;;5023581;28;20148;-63
2024/01/27 06:37:50;;;;;;;8.73;3.38;;;;;;;;;;5036682;28;20080;-64
2024/01/27 06:40:22;;;;;;;7.22;2.72;;;;;;;;;;5041926;28;20053;-64
2024/01/27 06:42:50;;;;;;;10.27;3.38;;;;;;;;;;5048191;28;20049;-62
2024/01/27 06:45:17;;;;;;;14.10;3.20;;;;;;;;;;5025673;28;20049;-63
2024/01/27 06:47:44;;;;;;;10.25;3.58;;;;;;;;;;5028003;28;20048;-65
2024/01/27 06:50:11;;;;;;;5.68;2.67;;;;;;;;;;5039916;28;20080;-65
2024/01/27 06:52:37;;;;;;;9.88;3.20;;;;;;;;;;5036079;28;20063;-66
2024/01/27 06:55:06;;;;;;;9.63;2.97;;;;;;;;;;5024844;28;20060;-65
2024/01/27 06:57:33;;;;;;;9.38;3.72;;;;;;;;;;5041506;28;20056;-63
2024/01/27 07:00:02;;;;;;;12.98;3.85;;;;;;;;;;5040169;28;20059;-64
2024/01/27 07:02:29;;;;;;;12.32;4.65;;;;;;;;;;5046303;28;20056;-63
2024/01/27 07:04:59;;;;;;;8.95;4.10;;;;;;;;;;5040840;28;20130;-63
2024/01/27 07:07:27;;;;;;;12.25;3.80;;;;;;;;;;5018977;28;20130;-63
2024/01/27 07:09:54;;;;;;;9.55;3.13;;;;;;;;;;5015699;28;20065;-64
2024/01/27 07:12:20;;;;;;;10.50;3.95;;;;;;;;;;5034040;28;20072;-63
2024/01/27 07:14:47;;;;;;;11.45;3.63;;;;;;;;;;5031207;28;20056;-64
2024/01/27 07:17:15;;;;;;;8.75;3.22;;;;;;;;;;5058383;28;20060;-63
2024/01/27 07:19:46;;;;;;;9.38;4.10;;;;;;;;;;5046138;28;20059;-64
2024/01/27 07:22:13;;;;;;;7.15;3.10;;;;;;;;;;5043177;28;20040;-63
2024/01/27 07:24:40;;;;;;;10.15;3.65;;;;;;;;;;5039313;28;20060;-64
2024/01/27 07:27:06;;;;;;;8.48;3.40;;;;;;;;;;5039791;28;20080;-64
2024/01/27 07:29:33;;;;;;;9.82;3.50;;;;;;;;;;5025353;28;20443;-63
2024/01/27 07:32:00;;;;;;;10.32;3.60;;;;;;;;;;5037974;28;20045;-63
2024/01/27 07:34:28;;;;;;;9.98;3.40;;;;;;;;;;5030315;28;20222;-63
2024/01/27 07:36:55;;;;;;;13.25;3.78;;;;;;;;;;5037540;28;20098;-64
2024/01/27 07:39:23;;;;;;;11.18;3.92;;;;;;;;;;5037019;28;20056;-63
2024/01/27 07:41:49;;;;;;;13.90;4.10;;;;;;;;;;5042649;28;20130;-63
2024/01/27 07:44:19;;;;;;;11.55;4.05;;;;;;;;;;5011346;28;20127;-63
2024/01/27 07:46:46;;;;;;;8.38;3.40;;;;;;;;;;5033813;28;20049;-63
2024/01/27 07:49:14;;;;;;;8.30;3.53;;;;;;;;;;5042643;28;20044;-63
2024/01/27 07:51:48;;;;;;;10.27;3.58;;;;;;;;;;5057884;28;20053;-64
2024/01/27 07:54:15;;;;;;;11.93;3.63;;;;;;;;;;5019193;28;20058;-64
2024/01/27 07:56:42;;;;;;;14.15;4.78;;;;;;;;;;5037951;28;20045;-63
2024/01/27 07:59:13;;;;;;;11.95;3.65;;;;;;;;;;5033966;28;20056;-63
2024/01/27 08:01:40;;;;;;;10.48;4.13;;;;;;;;;;5031656;28;20136;-64
2024/01/27 08:04:08;;;;;;;9.65;3.63;;;;;;;;;;5026887;28;20056;-65
2024/01/27 08:06:34;;;;;;;14.07;4.03;;;;;;;;;;5030467;28;20160;-65
2024/01/27 08:09:06;;;;;;;9.73;3.40;;;;;;;;;;5035750;28;20132;-65
2024/01/27 08:11:33;;;;;;;10.38;3.63;;;;;;;;;;5030748;28;20173;-63
2024/01/27 08:14:02;;;;;;;8.80;3.50;;;;;;;;;;5030395;28;20068;-65
2024/01/27 08:16:29;;;;;;;9.43;3.83;;;;;;;;;;5037173;28;20053;-63
2024/01/27 08:18:56;;;;;;;14.35;4.20;;;;;;;;;;5030364;28;20103;-63
2024/01/27 08:21:22;;;;;;;8.68;3.70;;;;;;;;;;5066559;28;20048;-64
2024/01/27 08:23:50;;;;;;;9.70;4.15;;;;;;;;;;4994331;28;20048;-64
2024/01/27 08:26:20;;;;;;;17.20;6.57;;;;;;;;;;5009418;28;20083;-64
2024/01/27 08:28:47;;;;;;;10.77;4.03;;;;;;;;;;5044815;28;20048;-64
2024/01/27 08:31:14;;;;;;;9.98;3.42;;;;;;;;;;5024010;28;20076;-63
2024/01/27 08:33:41;;;;;;;9.70;3.38;;;;;;;;;;5025753;28;20073;-63
2024/01/27 08:36:08;;;;;;;11.23;3.97;;;;;;;;;;5007428;28;20088;-63
2024/01/27 08:38:35;;;;;;;10.30;3.78;;;;;;;;;;5035835;28;20079;-64
2024/01/27 08:41:02;;;;;;;9.38;3.58;;;;;;;;;;5037917;28;20061;-63
2024/01/27 08:43:32;;;;;;;13.32;4.00;;;;;;;;;;5020796;28;20110;-63
2024/01/27 08:46:00;;;;;;;9.98;4.10;;;;;;;;;;5026142;28;20126;-63
2024/01/27 08:48:27;;;;;;;10.00;3.90;;;;;;;;;;5045450;28;20059;-63
2024/01/27 08:50:54;;;;;;;11.35;4.40;;;;;;;;;;5062680;28;20057;-63
2024/01/27 08:53:21;;;;;;;12.50;4.20;;;;;;;;;;5057441;28;20121;-63
2024/01/27 08:55:57;;;;;;;14.23;4.47;;;;;;;;;;5038801;28;20192;-62
2024/01/27 08:58:23;;;;;;;13.07;4.05;;;;;;;;;;5017094;28;20123;-63
2024/01/27 09:00:52;;;;;;;12.00;4.20;;;;;;;;;;5039550;28;20049;-63
2024/01/27 09:03:20;;;;;;;11.98;4.60;;;;;;;;;;5026649;28;20143;-63
2024/01/27 09:05:48;;;;;;;12.18;5.25;;;;;;;;;;5020937;28;20056;-63
2024/01/27 09:08:18;;;;;;;11.75;4.10;;;;;;;;;;5043690;28;20084;-63
2024/01/27 09:10:50;;;;;;;15.23;4.13;;;;;;;;;;5051305;28;20044;-63
2024/01/27 09:13:17;;;;;;;12.57;4.30;;;;;;;;;;5051447;28;20048;-62
2024/01/27 09:15:48;;;;;;;14.15;4.25;;;;;;;;;;5011935;28;20044;-63
2024/01/27 09:18:16;;;;;;;9.82;4.50;;;;;;;;;;5022327;28;20640;-63
2024/01/27 09:20:43;;;;;;;16.80;4.88;;;;;;;;;;5029507;28;20094;-63
2024/01/27 09:23:12;;;;;;;16.45;6.78;;;;;;;;;;5041753;28;20127;-63
2024/01/27 09:25:44;;;;;;;13.77;4.72;;;;;;;;;;4979341;28;20053;-64
2024/01/27 09:28:11;;;;;;;15.52;5.00;;;;;;;;;;5017457;28;20056;-63
2024/01/27 09:30:39;;;;;;;10.45;4.35;;;;;;;;;;5020341;28;20151;-62
2024/01/27 09:33:06;;;;;;;16.50;5.68;;;;;;;;;;5039191;28;20076;-63
2024/01/27 09:35:36;;;;;;;15.68;5.15;;;;;;;;;;5030680;28;20133;-63
2024/01/27 09:38:07;;;;;;;14.05;5.15;;;;;;;;;;5052409;28;20052;-63
2024/01/27 09:40:34;;;;;;;13.18;4.85;;;;;;;;;;5039421;28;20194;-63
2024/01/27 09:43:04;;;;;;;14.43;4.20;;;;;;;;;;5041491;28;20040;-64
2024/01/27 09:45:31;;;;;;;10.70;3.42;;;;;;;;;;5034511;28;20055;-63
2024/01/27 09:47:59;;;;;;;13.00;4.13;;;;;;;;;;5052620;28;20106;-63
2024/01/27 09:50:26;;;;;;;12.90;4.45;;;;;;;;;;5038366;28;20090;-63
2024/01/27 09:52:55;;;;;;;13.45;4.57;;;;;;;;;;5054173;28;20109;-63
2024/01/27 09:55:22;;;;;;;12.18;4.63;;;;;;;;;;5028574;28;20146;-63
2024/01/27 09:57:52;;;;;;;9.25;4.35;;;;;;;;;;5045972;28;20115;-63
2024/01/27 10:00:20;;;;;;;12.63;4.18;;;;;;;;;;5041172;28;20118;-65
2024/01/27 10:02:47;;;;;;;16.58;5.10;;;;;;;;;;5038957;28;20041;-63
2024/01/27 10:05:14;;;;;;;13.68;4.45;;;;;;;;;;5038744;28;20057;-63
2024/01/27 10:07:44;;;;;;;13.85;4.68;;;;;;;;;;5047967;28;20181;-64
2024/01/27 10:10:15;;;;;;;12.07;4.72;;;;;;;;;;5041843;28;20049;-63
2024/01/27 10:12:43;;;;;;;13.13;4.75;;;;;;;;;;5038960;28;20049;-64
2024/01/27 10:15:20;;;;;;;14.32;4.43;;;;;;;;;;5036755;28;20091;-63
2024/01/27 10:17:47;;;;;;;12.73;4.55;;;;;;;;;;5023851;28;20119;-63
2024/01/27 10:20:15;;;;;;;16.77;4.82;;;;;;;;;;5028592;28;20124;-63
2024/01/27 10:22:44;;;;;;;16.38;5.22;;;;;;;;;;5030944;28;20104;-65
2024/01/27 10:25:16;;;;;;;10.65;3.75;;;;;;;;;;5027409;28;20060;-62
2024/01/27 10:27:45;;;;;;;14.48;5.95;;;;;;;;;;5019660;28;20060;-62
2024/01/27 10:30:18;;;;;;;21.52;7.30;;;;;;;;;;5018952;28;20139;-63
2024/01/27 10:32:56;;;;;;;12.85;5.50;;;;;;;;;;5028544;28;20052;-63
2024/01/27 10:35:23;;;;;;;11.68;4.60;;;;;;;;;;4962284;28;20228;-62
2024/01/27 10:37:56;;;;;;;15.18;5.88;;;;;;;;;;5007362;28;20053;-64
2024/01/27 10:40:27;;;;;;;11.77;4.68;;;;;;;;;;5015141;28;20072;-62
2024/01/27 10:43:03;;;;;;;15.25;5.60;;;;;;;;;;5016757;28;20046;-63
2024/01/27 10:45:36;;;;;;;14.20;5.35;;;;;;;;;;5008256;28;20064;-63
2024/01/27 10:48:04;;;;;;;13.77;5.55;;;;;;;;;;5032980;28;20130;-65
2024/01/27 10:50:33;;;;;;;13.38;5.50;;;;;;;;;;5047167;28;20048;-63
2024/01/27 10:53:02;;;;;;;18.70;5.53;;;;;;;;;;5046421;28;20084;-65
2024/01/27 10:55:30;;;;;;;;;;;;;;;;;;4973683;28;20057;-63
2024/01/27 10:57:58;;;;;;;12.45;4.55;;;;;;;;;;4990949;28;19936;-63
2024/01/27 11:00:27;;;;;;;15.65;5.63;;;;;;;;;;5009923;28;20271;-63
2024/01/27 11:03:02;;;;;;;11.98;4.57;;;;;;;;;;5000736;28;20049;-64
2024/01/27 11:05:32;;;;;;;12.57;4.75;;;;;;;;;;4977501;28;20052;-63
2024/01/27 11:07:59;;;;;;;11.25;4.43;;;;;;;;;;5033336;28;20056;-63
2024/01/27 11:10:35;;;;;;;10.88;4.72;;;;;;;;;;5023494;28;20156;-63
2024/01/27 11:13:06;;;;;;;8.63;4.15;;;;;;;;;;5041757;28;20147;-62
2024/01/27 11:15:33;;;;;;;18.55;6.75;;;;;;;;;;5020611;28;20107;-63
2024/01/27 11:18:02;;;;;;;17.48;6.65;;;;;;;;;;5012783;28;20390;-63
2024/01/27 11:20:31;;;;;;;14.75;5.97;;;;;;;;;;5020100;28;20111;-62
2024/01/27 11:23:31;;;;;;;;;;;;;;;;;;;;;
2024/01/27 11:26:04;;;;;;;17.63;6.50;;;;;;;;;;5023328;28;20142;-63
2024/01/27 11:28:35;;;;;;;12.18;5.63;;;;;;;;;;5034235;28;20087;-63
2024/01/27 11:31:06;;;;;;;17.13;6.53;;;;;;;;;;5039065;28;20061;-63
2024/01/27 11:33:36;;;;;;;17.35;5.22;;;;;;;;;;5042129;28;20140;-62
2024/01/27 11:36:04;;;;;;;11.90;5.10;;;;;;;;;;4996505;28;20233;-62
2024/01/27 11:38:32;;;;;;;21.73;6.28;;;;;;;;;;5045629;28;20049;-63
2024/01/27 11:40:59;;;;;;;19.27;6.13;;;;;;;;;;5020130;28;20137;-63
2024/01/27 11:43:25;;;;;;;11.73;4.90;;;;;;;;;;5038315;28;20041;-63
2024/01/27 11:46:01;;;;;;;12.85;5.18;;;;;;;;;;5030404;28;20050;-63
2024/01/27 11:48:29;;;;;;;14.20;4.88;;;;;;;;;;5053187;28;20060;-63
2024/01/27 11:51:04;;;;;;;12.35;4.18;;;;;;;;;;5049471;28;20067;-64
2024/01/27 11:53:33;;;;;;;11.60;4.10;;;;;;;;;;5044473;28;20047;-63
2024/01/27 11:56:01;;;;;;;17.30;5.72;;;;;;;;;;5014379;28;20123;-63
2024/01/27 11:58:30;;;;;;;14.07;5.70;;;;;;;;;;5029220;28;20139;-62
2024/01/27 12:00:58;;;;;;;;;;;;;;;;;;5038115;28;20048;-62
2024/01/27 12:03:26;;;;;;;15.75;4.45;;;;;;;;;;5033308;28;20007;-62
2024/01/27 12:05:53;;;;;;;9.02;3.75;;;;;;;;;;5018938;28;20048;-63
2024/01/27 12:08:21;;;;;;;12.77;4.20;;;;;;;;;;5020314;28;20064;-63
2024/01/27 12:10:48;;;;;;;;;;;;;;;;;;5021954;28;20051;-63
2024/01/27 12:13:15;;;;;;;8.05;2.65;;;;;;;;;;5015919;28;19983;-62
2024/01/27 12:15:45;;;;;;;13.15;3.97;;;;;;;;;;4998385;28;20064;-63
2024/01/27 12:18:12;;;;;;;10.00;3.30;;;;;;;;;;5013915;28;20145;-64
2024/01/27 12:20:40;;;;;;;10.35;3.58;;;;;;;;;;5022231;28;20041;-63
2024/01/27 12:23:08;;;;;;;10.05;3.17;;;;;;;;;;5039817;28;20061;-64
2024/01/27 12:25:36;;;;;;;7.73;2.97;;;;;;;;;;5020080;28;20059;-63
2024/01/27 12:28:07;;;;;;;14.20;3.53;;;;;;;;;;5033838;28;20049;-63
2024/01/27 12:30:34;;;;;;;10.40;3.35;;;;;;;;;;5062393;28;20053;-64
2024/01/27 12:33:01;;;;;;;11.20;3.15;;;;;;;;;;5048005;28;20110;-63
2024/01/27 12:35:30;;;;;;;11.35;3.92;;;;;;;;;;4965648;28;20060;-63
2024/01/27 12:38:00;;;;;;;;;;;;;;;;;;5012546;28;20048;-63
2024/01/27 12:40:30;;;;;;;13.73;3.65;;;;;;;;;;5015820;28;19940;-62
2024/01/27 12:42:59;;;;;;;17.13;3.92;;;;;;;;;;5021525;28;20049;-65
2024/01/27 12:45:27;;;;;;;8.20;3.08;;;;;;;;;;4961749;28;20076;-63
2024/01/27 12:47:55;;;;;;;9.65;3.72;;;;;;;;;;5010086;28;20045;-63
2024/01/27 12:50:22;;;;;;;8.75;3.22;;;;;;;;;;5019710;28;20060;-63
2024/01/27 12:52:51;;;;;;;17.77;3.58;;;;;;;;;;5017076;28;20052;-63
2024/01/27 12:55:19;;;;;;;14.13;4.50;;;;;;;;;;4983372;28;20053;-63
2024/01/27 12:57:50;;;;;;;26.10;8.63;;;;;;;;;;5060688;28;20055;-63
2024/01/27 13:00:22;;;;;;;16.23;5.25;;;;;;;;;;5048131;28;20063;-63
2024/01/27 13:02:49;;;;;;;11.90;3.78;;;;;;;;;;5051855;28;20059;-63
2024/01/27 13:05:20;;;;;;;14.80;3.65;;;;;;;;;;5024034;28;20663;-63
2024/01/27 13:07:48;;;;;;;20.52;3.58;;;;;;;;;;5033731;28;20057;-63
2024/01/27 13:10:16;;;;;;;8.45;3.33;;;;;;;;;;5033270;28;20142;-63
2024/01/27 13:12:44;;;;;;;14.30;4.45;;;;;;;;;;5040644;28;20051;-64
2024/01/27 13:15:11;;;;;;;12.82;4.13;;;;;;;;;;5016431;28;20148;-63
2024/01/27 13:17:41;;;;;;;9.52;3.47;;;;;;;;;;5022332;28;20072;-63
2024/01/27 13:20:23;;;;;;;;;;;;;;;;;;;;;
2024/01/27 13:22:52;;;;;;;7.35;2.72;;;;;;;;;;5024733;28;20053;-63
2024/01/27 13:25:22;;;;;;;10.85;2.92;;;;;;;;;;5010376;28;20149;-63
2024/01/27 13:27:51;;;;;;;12.70;2.97;;;;;;;;;;5053941;28;20051;-63
2024/01/27 13:30:26;;;;;;;11.52;2.40;;;;;;;;;;5057465;28;20101;-63
2024/01/27 13:32:58;;;;;;;14.57;3.22;;;;;;;;;;5031560;28;20045;-64
2024/01/27 13:35:25;;;;;;;14.98;3.10;;;;;;;;;;5040358;28;20056;-64
2024/01/27 13:37:52;;;;;;;8.98;2.72;;;;;;;;;;5055574;28;20048;-63
2024/01/27 13:40:29;;;;;;;19.85;2.97;;;;;;;;;;5064378;28;20072;-62
2024/01/27 13:43:02;;;;;;;11.68;3.95;;;;;;;;;;5043645;28;20071;-64
2024/01/27 13:45:29;;;;;;;12.20;2.53;;;;;;;;;;5036429;28;20076;-62
2024/01/27 13:47:57;;;;;;;8.77;2.80;;;;;;;;;;5042236;28;20068;-64
2024/01/27 13:50:30;;;;;;;5.10;1.90;;;;;;;;;;5043322;28;20483;-64
2024/01/27 13:53:00;;;;;;;9.95;2.60;;;;;;;;;;5038781;28;20112;-64
2024/01/27 13:55:32;;;;;;;9.00;2.35;;;;;;;;;;5038586;28;20102;-64
2024/01/27 13:58:09;;;;;;;8.35;2.80;;;;;;;;;;5054890;28;20282;-65
2024/01/27 14:00:36;;;;;;;10.13;2.92;;;;;;;;;;5050914;28;20071;-63
2024/01/27 14:03:02;;;;;;;10.10;2.72;;;;;;;;;;5060305;28;20056;-63
2024/01/27 14:05:31;;;;;;;13.85;3.75;;;;;;;;;;4999966;28;20060;-63
2024/01/27 14:07:59;;;;;;;21.30;5.35;;;;;;;;;;5052898;28;20052;-64
2024/01/27 14:10:26;;;;;;;24.35;7.90;;;;;;;;;;5040936;28;20092;-63
2024/01/27 14:12:52;;;;;;;14.32;3.25;;;;;;;;;;5056195;28;20052;-63
2024/01/27 14:15:29;;;;;;;12.15;3.50;;;;;;;;;;5030802;28;20048;-63
2024/01/27 14:17:56;;;;;;;8.00;2.25;;;;;;;;;;5040069;28;20053;-63
2024/01/27 14:20:23;;;;;;;14.55;2.90;;;;;;;;;;5038483;28;20073;-64
2024/01/27 14:22:50;;;;;;;9.48;2.97;;;;;;;;;;5047869;28;20057;-64
2024/01/27 14:25:16;;;;;;;12.70;2.60;;;;;;;;;;5035487;28;20140;-64
2024/01/27 14:27:45;;;;;;;7.53;2.10;;;;;;;;;;5032202;28;20056;-64
2024/01/27 14:30:13;;;;;;;12.75;3.35;;;;;;;;;;5037541;28;20057;-64
2024/01/27 14:32:41;;;;;;;10.05;2.72;;;;;;;;;;5033067;28;20143;-63
2024/01/27 14:35:16;;;;;;;9.93;2.38;;;;;;;;;;5015768;28;20144;-65
2024/01/27 14:37:43;;;;;;;11.35;2.50;;;;;;;;;;5019009;28;20049;-63
2024/01/27 14:40:13;;;;;;;13.95;2.35;;;;;;;;;;5040904;28;20068;-64
2024/01/27 14:42:41;;;;;;;15.10;2.63;;;;;;;;;;5023004;28;20186;-65
2024/01/27 14:45:12;;;;;;;12.75;2.30;;;;;;;;;;5021111;28;20057;-65
2024/01/27 14:47:38;;;;;;;12.20;2.58;;;;;;;;;;5056541;28;20127;-64
2024/01/27 14:50:10;;;;;;;10.25;2.70;;;;;;;;;;5059422;28;20218;-64
2024/01/27 14:52:37;;;;;;;9.18;2.13;;;;;;;;;;5038603;28;20045;-65
2024/01/27 14:55:05;;;;;;;15.75;3.35;;;;;;;;;;5025774;28;20141;-64
2024/01/27 14:57:32;;;;;;;13.52;2.90;;;;;;;;;;5059793;28;20179;-64
2024/01/27 14:59:59;;;;;;;9.27;2.53;;;;;;;;;;5056222;28;20135;-66
2024/01/27 15:02:26;;;;;;;11.63;3.05;;;;;;;;;;5038252;28;20064;-64
2024/01/27 15:04:53;;;;;;;12.20;2.70;;;;;;;;;;5021475;28;20059;-64